Terminal Aerodrome Forecast
Issued by NWS Pocatello, ID

Home | Current Version | Previous Version | Text Only | Print | Product List | Glossary On
Versions: 1 2 3 4 5 6 7 8 9 10 11 12 13 14 15
000
FTUS45 KPIH 191120
TAFBYI
TAF
KBYI 191120Z 1912/2012 23011KT P6SM -SHRA SCT025 OVC035
     FM192000 26010G20KT P6SM -SHRA VCTS SCT035CB BKN080
     FM200200 21010KT P6SM SCT040 BKN080
     FM200800 19009KT P6SM VCSH SCT025 OVC040=

USA.gov is the U.S. government's official web portal to all federal, state and local government web resources and services.